sensor_id;sensor_type;location;lat;lon;timestamp;pressure;altitude;pressure_sealevel;temperature;humidity
37860;BME280;23698;52.014;5.190;2023-02-20T00:02:21;102309.63;;;6.63;100.00
37860;BME280;23698;52.014;5.190;2023-02-20T00:05:07;102308.16;;;6.58;100.00
37860;BME280;23698;52.014;5.190;2023-02-20T00:07:54;102307.75;;;6.42;100.00
37860;BME280;23698;52.014;5.190;2023-02-20T00:10:42;102306.91;;;6.41;100.00
37860;BME280;23698;52.014;5.190;2023-02-20T00:13:28;102287.25;;;6.51;100.00
37860;BME280;23698;52.014;5.190;2023-02-20T00:16:15;102266.88;;;6.58;100.00
37860;BME280;23698;52.014;5.190;2023-02-20T00:19:01;102264.63;;;6.42;100.00
37860;BME280;23698;52.014;5.190;2023-02-20T00:21:49;102272.41;;;6.56;100.00
37860;BME280;23698;52.014;5.190;2023-02-20T00:24:38;102269.06;;;6.64;100.00
37860;BME280;23698;52.014;5.190;2023-02-20T00:27:26;102241.44;;;6.72;100.00
37860;BME280;23698;52.014;5.190;2023-02-20T00:30:15;102254.47;;;6.67;100.00
37860;BME280;23698;52.014;5.190;2023-02-20T00:33:03;102252.63;;;6.67;100.00
37860;BME280;23698;52.014;5.190;2023-02-20T00:35:49;102248.03;;;6.58;100.00
37860;BME280;23698;52.014;5.190;2023-02-20T00:38:36;102246.03;;;6.81;100.00
37860;BME280;23698;52.014;5.190;2023-02-20T00:41:23;102246.97;;;6.70;100.00
37860;BME280;23698;52.014;5.190;2023-02-20T00:44:11;102247.22;;;6.67;100.00
37860;BME280;23698;52.014;5.190;2023-02-20T00:46:58;102234.78;;;6.76;100.00
37860;BME280;23698;52.014;5.190;2023-02-20T00:49:44;102245.25;;;6.48;100.00
37860;BME280;23698;52.014;5.190;2023-02-20T00:52:31;102238.28;;;6.46;100.00
37860;BME280;23698;52.014;5.190;2023-02-20T00:55:18;102237.69;;;6.42;100.00
37860;BME280;23698;52.014;5.190;2023-02-20T00:58:05;102236.84;;;6.41;100.00
37860;BME280;23698;52.014;5.190;2023-02-20T01:00:52;102241.91;;;6.56;100.00
37860;BME280;23698;52.014;5.190;2023-02-20T01:03:40;102237.31;;;6.47;100.00
37860;BME280;23698;52.014;5.190;2023-02-20T01:06:26;102223.25;;;6.43;100.00
37860;BME280;23698;52.014;5.190;2023-02-20T01:09:13;102224.94;;;6.44;100.00
37860;BME280;23698;52.014;5.190;2023-02-20T01:11:59;102214.88;;;6.25;100.00
37860;BME280;23698;52.014;5.190;2023-02-20T01:14:46;102211.69;;;6.31;100.00
37860;BME280;23698;52.014;5.190;2023-02-20T01:17:34;102213.50;;;6.31;100.00
37860;BME280;23698;52.014;5.190;2023-02-20T01:20:20;102208.09;;;6.10;100.00
37860;BME280;23698;52.014;5.190;2023-02-20T01:23:07;102199.13;;;6.20;100.00
37860;BME280;23698;52.014;5.190;2023-02-20T01:25:54;102184.03;;;6.08;100.00
37860;BME280;23698;52.014;5.190;2023-02-20T01:28:42;102182.88;;;6.11;100.00
37860;BME280;23698;52.014;5.190;2023-02-20T01:31:29;102180.09;;;6.01;100.00
37860;BME280;23698;52.014;5.190;2023-02-20T01:34:20;102164.72;;;5.92;100.00
37860;BME280;23698;52.014;5.190;2023-02-20T01:37:10;102174.00;;;5.99;100.00
37860;BME280;23698;52.014;5.190;2023-02-20T01:39:59;102182.41;;;6.05;100.00
37860;BME280;23698;52.014;5.190;2023-02-20T01:42:45;102186.56;;;6.10;100.00
37860;BME280;23698;52.014;5.190;2023-02-20T01:45:37;102177.38;;;6.12;100.00
37860;BME280;23698;52.014;5.190;2023-02-20T01:48:24;102181.34;;;6.29;100.00
37860;BME280;23698;52.014;5.190;2023-02-20T01:51:13;102179.63;;;6.28;100.00
37860;BME280;23698;52.014;5.190;2023-02-20T01:54:01;102167.00;;;6.29;100.00
37860;BME280;23698;52.014;5.190;2023-02-20T01:56:51;102172.44;;;6.59;100.00
37860;BME280;23698;52.014;5.190;2023-02-20T01:59:40;102173.38;;;6.49;100.00
37860;BME280;23698;52.014;5.190;2023-02-20T02:02:28;102172.59;;;6.37;100.00
37860;BME280;23698;52.014;5.190;2023-02-20T02:05:17;102179.22;;;6.54;100.00
37860;BME280;23698;52.014;5.190;2023-02-20T02:08:06;102176.13;;;6.58;100.00
37860;BME280;23698;52.014;5.190;2023-02-20T02:10:59;102169.81;;;6.69;100.00
37860;BME280;23698;52.014;5.190;2023-02-20T02:13:46;102174.88;;;6.63;100.00
37860;BME280;23698;52.014;5.190;2023-02-20T02:16:37;102178.31;;;6.74;100.00
37860;BME280;23698;52.014;5.190;2023-02-20T02:20:00;102185.19;;;6.78;100.00
37860;BME280;23698;52.014;5.190;2023-02-20T02:23:18;102175.44;;;6.87;100.00
37860;BME280;23698;52.014;5.190;2023-02-20T02:26:31;102173.81;;;6.75;100.00
37860;BME280;23698;52.014;5.190;2023-02-20T02:29:42;102175.81;;;6.83;100.00
37860;BME280;23698;52.014;5.190;2023-02-20T02:36:24;102171.22;;;7.04;100.00
37860;BME280;23698;52.014;5.190;2023-02-20T02:39:20;102174.69;;;7.16;100.00
37860;BME280;23698;52.014;5.190;2023-02-20T02:42:14;102175.69;;;6.84;100.00
37860;BME280;23698;52.014;5.190;2023-02-20T02:45:10;102184.41;;;6.97;100.00
37860;BME280;23698;52.014;5.190;2023-02-20T02:48:02;102176.78;;;7.12;100.00
37860;BME280;23698;52.014;5.190;2023-02-20T02:50:53;102175.09;;;7.11;100.00
37860;BME280;23698;52.014;5.190;2023-02-20T02:54:03;102166.19;;;6.90;100.00
37860;BME280;23698;52.014;5.190;2023-02-20T02:56:50;102172.22;;;7.03;100.00
37860;BME280;23698;52.014;5.190;2023-02-20T02:59:37;102176.78;;;7.12;100.00
37860;BME280;23698;52.014;5.190;2023-02-20T03:02:24;102182.31;;;7.11;100.00
37860;BME280;23698;52.014;5.190;2023-02-20T03:05:17;102175.81;;;7.13;100.00
37860;BME280;23698;52.014;5.190;2023-02-20T03:08:07;102175.13;;;7.21;100.00
37860;BME280;23698;52.014;5.190;2023-02-20T03:11:03;102179.16;;;7.36;100.00
37860;BME280;23698;52.014;5.190;2023-02-20T03:13:53;102154.84;;;7.27;100.00
37860;BME280;23698;52.014;5.190;2023-02-20T03:17:07;102154.84;;;7.27;100.00
37860;BME280;23698;52.014;5.190;2023-02-20T03:19:59;102156.94;;;7.13;100.00
37860;BME280;23698;52.014;5.190;2023-02-20T03:22:52;102160.88;;;7.09;100.00
37860;BME280;23698;52.014;5.190;2023-02-20T03:25:39;102164.72;;;7.07;100.00
37860;BME280;23698;52.014;5.190;2023-02-20T03:28:32;102159.84;;;7.41;100.00
37860;BME280;23698;52.014;5.190;2023-02-20T03:31:24;102157.88;;;7.43;100.00
37860;BME280;23698;52.014;5.190;2023-02-20T03:34:17;102159.91;;;7.10;100.00
37860;BME280;23698;52.014;5.190;2023-02-20T03:37:25;102172.91;;;7.46;100.00
37860;BME280;23698;52.014;5.190;2023-02-20T03:40:32;102172.41;;;7.21;100.00
37860;BME280;23698;52.014;5.190;2023-02-20T03:43:38;102163.75;;;7.17;100.00
37860;BME280;23698;52.014;5.190;2023-02-20T03:46:26;102167.06;;;7.41;100.00
37860;BME280;23698;52.014;5.190;2023-02-20T03:49:17;102162.25;;;7.44;100.00
37860;BME280;23698;52.014;5.190;2023-02-20T03:52:06;102167.22;;;7.29;100.00
37860;BME280;23698;52.014;5.190;2023-02-20T03:54:55;102157.88;;;7.53;100.00
37860;BME280;23698;52.014;5.190;2023-02-20T03:57:44;102160.97;;;7.29;100.00
37860;BME280;23698;52.014;5.190;2023-02-20T04:00:37;102151.47;;;7.34;100.00
37860;BME280;23698;52.014;5.190;2023-02-20T04:03:30;102147.38;;;7.50;100.00
37860;BME280;23698;52.014;5.190;2023-02-20T04:06:21;102147.34;;;7.40;100.00
37860;BME280;23698;52.014;5.190;2023-02-20T04:09:14;102140.53;;;7.46;100.00
37860;BME280;23698;52.014;5.190;2023-02-20T04:12:07;102129.34;;;7.70;100.00
37860;BME280;23698;52.014;5.190;2023-02-20T04:14:59;102131.44;;;7.37;100.00
37860;BME280;23698;52.014;5.190;2023-02-20T04:17:49;102131.31;;;7.48;100.00
37860;BME280;23698;52.014;5.190;2023-02-20T04:20:37;102133.28;;;7.36;100.00
37860;BME280;23698;52.014;5.190;2023-02-20T04:23:38;102134.84;;;7.39;100.00
37860;BME280;23698;52.014;5.190;2023-02-20T04:26:26;102130.31;;;7.40;100.00
37860;BME280;23698;52.014;5.190;2023-02-20T04:29:13;102135.13;;;7.46;100.00
37860;BME280;23698;52.014;5.190;2023-02-20T04:32:00;102136.38;;;7.32;100.00
37860;BME280;23698;52.014;5.190;2023-02-20T04:34:51;102130.59;;;7.56;100.00
37860;BME280;23698;52.014;5.190;2023-02-20T04:37:38;102128.16;;;7.33;100.00
37860;BME280;23698;52.014;5.190;2023-02-20T04:40:25;102126.22;;;7.55;100.00
37860;BME280;23698;52.014;5.190;2023-02-20T04:43:12;102124.09;;;7.59;100.00
37860;BME280;23698;52.014;5.190;2023-02-20T04:45:59;102132.03;;;7.70;100.00
37860;BME280;23698;52.014;5.190;2023-02-20T04:48:46;102121.38;;;7.68;100.00
37860;BME280;23698;52.014;5.190;2023-02-20T04:51:34;102119.13;;;7.83;100.00
37860;BME280;23698;52.014;5.190;2023-02-20T04:54:21;102113.84;;;8.01;100.00
37860;BME280;23698;52.014;5.190;2023-02-20T04:57:08;102109.19;;;7.64;100.00
37860;BME280;23698;52.014;5.190;2023-02-20T04:59:54;102113.88;;;7.62;100.00
37860;BME280;23698;52.014;5.190;2023-02-20T05:02:41;102101.22;;;7.92;100.00
37860;BME280;23698;52.014;5.190;2023-02-20T05:05:28;102108.63;;;7.90;100.00
37860;BME280;23698;52.014;5.190;2023-02-20T05:08:16;102108.31;;;7.83;100.00
37860;BME280;23698;52.014;5.190;2023-02-20T05:11:03;102102.78;;;7.75;100.00
37860;BME280;23698;52.014;5.190;2023-02-20T05:13:49;102100.50;;;7.80;100.00
37860;BME280;23698;52.014;5.190;2023-02-20T05:16:36;102083.88;;;7.75;100.00
37860;BME280;23698;52.014;5.190;2023-02-20T05:19:23;102086.88;;;7.82;100.00
37860;BME280;23698;52.014;5.190;2023-02-20T05:22:10;102086.59;;;7.85;100.00
37860;BME280;23698;52.014;5.190;2023-02-20T05:25:07;102084.56;;;8.06;100.00
37860;BME280;23698;52.014;5.190;2023-02-20T05:27:54;102071.22;;;7.85;100.00
37860;BME280;23698;52.014;5.190;2023-02-20T05:30:40;102071.75;;;8.18;100.00
37860;BME280;23698;52.014;5.190;2023-02-20T05:33:27;102072.72;;;8.17;100.00
37860;BME280;23698;52.014;5.190;2023-02-20T05:36:13;102066.22;;;8.00;100.00
37860;BME280;23698;52.014;5.190;2023-02-20T05:39:00;102077.19;;;7.89;100.00
37860;BME280;23698;52.014;5.190;2023-02-20T05:41:48;102084.59;;;7.77;100.00
37860;BME280;23698;52.014;5.190;2023-02-20T05:44:34;102084.56;;;7.97;100.00
37860;BME280;23698;52.014;5.190;2023-02-20T05:47:21;102072.63;;;7.99;100.00
37860;BME280;23698;52.014;5.190;2023-02-20T05:50:08;102072.22;;;7.94;100.00
37860;BME280;23698;52.014;5.190;2023-02-20T05:52:54;102069.03;;;8.18;100.00
37860;BME280;23698;52.014;5.190;2023-02-20T05:55:41;102067.94;;;8.01;100.00
37860;BME280;23698;52.014;5.190;2023-02-20T05:58:29;102062.94;;;8.06;100.00
37860;BME280;23698;52.014;5.190;2023-02-20T06:01:17;102061.63;;;8.20;100.00
37860;BME280;23698;52.014;5.190;2023-02-20T06:04:04;102052.44;;;8.13;100.00
37860;BME280;23698;52.014;5.190;2023-02-20T06:06:51;102053.56;;;8.10;100.00
37860;BME280;23698;52.014;5.190;2023-02-20T06:09:41;102064.50;;;8.09;100.00
37860;BME280;23698;52.014;5.190;2023-02-20T06:12:28;102049.31;;;7.98;100.00
37860;BME280;23698;52.014;5.190;2023-02-20T06:15:16;102047.31;;;8.10;100.00
37860;BME280;23698;52.014;5.190;2023-02-20T06:18:03;102044.22;;;7.95;100.00
37860;BME280;23698;52.014;5.190;2023-02-20T06:20:49;102041.78;;;8.02;100.00
37860;BME280;23698;52.014;5.190;2023-02-20T06:23:36;102044.13;;;8.24;100.00
37860;BME280;23698;52.014;5.190;2023-02-20T06:26:23;102056.84;;;8.04;100.00
37860;BME280;23698;52.014;5.190;2023-02-20T06:29:11;102041.06;;;8.00;100.00
37860;BME280;23698;52.014;5.190;2023-02-20T06:31:58;102040.38;;;8.35;100.00
37860;BME280;23698;52.014;5.190;2023-02-20T06:34:45;102043.63;;;8.11;100.00
37860;BME280;23698;52.014;5.190;2023-02-20T06:37:32;102038.63;;;8.16;100.00
37860;BME280;23698;52.014;5.190;2023-02-20T06:40:19;102038.50;;;8.08;100.00
37860;BME280;23698;52.014;5.190;2023-02-20T06:43:05;102053.03;;;7.97;100.00
37860;BME280;23698;52.014;5.190;2023-02-20T06:45:52;102047.84;;;8.23;100.00
37860;BME280;23698;52.014;5.190;2023-02-20T06:48:44;102040.59;;;8.24;100.00
37860;BME280;23698;52.014;5.190;2023-02-20T06:51:32;102060.66;;;8.11;100.00
37860;BME280;23698;52.014;5.190;2023-02-20T06:54:19;102058.44;;;7.87;100.00
37860;BME280;23698;52.014;5.190;2023-02-20T06:57:07;102067.38;;;8.07;100.00
37860;BME280;23698;52.014;5.190;2023-02-20T06:59:53;102059.63;;;8.22;100.00
37860;BME280;23698;52.014;5.190;2023-02-20T07:02:40;102062.22;;;8.14;100.00
37860;BME280;23698;52.014;5.190;2023-02-20T07:05:28;102057.56;;;7.97;100.00
37860;BME280;23698;52.014;5.190;2023-02-20T07:08:15;102064.69;;;7.98;100.00
37860;BME280;23698;52.014;5.190;2023-02-20T07:11:01;102067.19;;;8.09;100.00
37860;BME280;23698;52.014;5.190;2023-02-20T07:13:48;102062.22;;;8.14;100.00
37860;BME280;23698;52.014;5.190;2023-02-20T07:16:35;102062.06;;;8.25;100.00
37860;BME280;23698;52.014;5.190;2023-02-20T07:19:22;102073.34;;;8.11;100.00
37860;BME280;23698;52.014;5.190;2023-02-20T07:22:10;102059.84;;;8.01;100.00
37860;BME280;23698;52.014;5.190;2023-02-20T07:24:56;102071.50;;;7.92;100.00
37860;BME280;23698;52.014;5.190;2023-02-20T07:27:43;102067.19;;;8.19;100.00
37860;BME280;23698;52.014;5.190;2023-02-20T07:30:30;102067.19;;;8.19;100.00
37860;BME280;23698;52.014;5.190;2023-02-20T07:33:17;102073.00;;;8.14;100.00
37860;BME280;23698;52.014;5.190;2023-02-20T07:36:06;102073.44;;;8.19;100.00
37860;BME280;23698;52.014;5.190;2023-02-20T07:38:54;102074.41;;;8.28;100.00
37860;BME280;23698;52.014;5.190;2023-02-20T07:41:41;102064.06;;;8.23;100.00
37860;BME280;23698;52.014;5.190;2023-02-20T07:44:55;102069.16;;;8.26;100.00
37860;BME280;23698;52.014;5.190;2023-02-20T07:47:41;102067.75;;;8.22;100.00
37860;BME280;23698;52.014;5.190;2023-02-20T07:50:28;102063.47;;;8.29;100.00
37860;BME280;23698;52.014;5.190;2023-02-20T07:53:17;102063.91;;;8.25;100.00
37860;BME280;23698;52.014;5.190;2023-02-20T07:56:05;102068.25;;;8.55;100.00
37860;BME280;23698;52.014;5.190;2023-02-20T07:58:52;102064.75;;;8.25;100.00
37860;BME280;23698;52.014;5.190;2023-02-20T08:01:39;102072.38;;;8.40;100.00
37860;BME280;23698;52.014;5.190;2023-02-20T08:04:25;102066.53;;;8.54;100.00
37860;BME280;23698;52.014;5.190;2023-02-20T08:07:12;102068.00;;;8.29;100.00
37860;BME280;23698;52.014;5.190;2023-02-20T08:09:59;102063.47;;;8.29;100.00
37860;BME280;23698;52.014;5.190;2023-02-20T08:12:48;102076.97;;;8.29;100.00
37860;BME280;23698;52.014;5.190;2023-02-20T08:15:34;102069.69;;;8.40;100.00
37860;BME280;23698;52.014;5.190;2023-02-20T08:18:21;102079.50;;;8.41;100.00
37860;BME280;23698;52.014;5.190;2023-02-20T08:21:08;102076.09;;;8.39;100.00
37860;BME280;23698;52.014;5.190;2023-02-20T08:23:55;102082.31;;;8.59;100.00
37860;BME280;23698;52.014;5.190;2023-02-20T08:26:42;102072.19;;;8.61;100.00
37860;BME280;23698;52.014;5.190;2023-02-20T08:29:31;102069.47;;;8.71;100.00
37860;BME280;23698;52.014;5.190;2023-02-20T08:32:17;102065.97;;;8.88;100.00
37860;BME280;23698;52.014;5.190;2023-02-20T08:35:05;102061.50;;;8.69;100.00
37860;BME280;23698;52.014;5.190;2023-02-20T08:37:52;102050.47;;;8.80;100.00
37860;BME280;23698;52.014;5.190;2023-02-20T08:40:38;102058.19;;;8.75;100.00
37860;BME280;23698;52.014;5.190;2023-02-20T08:43:26;102061.50;;;8.69;100.00
37860;BME280;23698;52.014;5.190;2023-02-20T08:46:14;102051.50;;;8.79;100.00
37860;BME280;23698;52.014;5.190;2023-02-20T08:49:01;102058.44;;;8.82;100.00
37860;BME280;23698;52.014;5.190;2023-02-20T08:51:52;102058.13;;;8.57;100.00
37860;BME280;23698;52.014;5.190;2023-02-20T08:54:38;102060.94;;;8.65;100.00
37860;BME280;23698;52.014;5.190;2023-02-20T08:57:25;102053.53;;;8.67;100.00
37860;BME280;23698;52.014;5.190;2023-02-20T09:00:14;102062.47;;;8.68;100.00
37860;BME280;23698;52.014;5.190;2023-02-20T09:03:03;102063.78;;;8.64;100.00
37860;BME280;23698;52.014;5.190;2023-02-20T09:05:51;102072.19;;;8.61;100.00
37860;BME280;23698;52.014;5.190;2023-02-20T09:08:38;102059.53;;;8.89;100.00
37860;BME280;23698;52.014;5.190;2023-02-20T09:11:25;102061.00;;;8.83;100.00
37860;BME280;23698;52.014;5.190;2023-02-20T09:14:12;102070.44;;;8.97;100.00
37860;BME280;23698;52.014;5.190;2023-02-20T09:16:58;102055.22;;;8.96;100.00
37860;BME280;23698;52.014;5.190;2023-02-20T09:19:46;102056.91;;;8.79;100.00
37860;BME280;23698;52.014;5.190;2023-02-20T09:22:33;102058.03;;;8.77;100.00
37860;BME280;23698;52.014;5.190;2023-02-20T09:25:19;102054.44;;;8.58;100.00
37860;BME280;23698;52.014;5.190;2023-02-20T09:28:07;102050.03;;;8.85;100.00
37860;BME280;23698;52.014;5.190;2023-02-20T09:30:54;102050.81;;;8.95;100.00
37860;BME280;23698;52.014;5.190;2023-02-20T09:33:43;102040.06;;;8.85;100.00
37860;BME280;23698;52.014;5.190;2023-02-20T09:36:37;102038.09;;;9.05;100.00
37860;BME280;23698;52.014;5.190;2023-02-20T09:39:23;102040.41;;;9.36;100.00
37860;BME280;23698;52.014;5.190;2023-02-20T09:42:21;102042.44;;;9.16;100.00
37860;BME280;23698;52.014;5.190;2023-02-20T09:45:11;102057.47;;;8.73;100.00
37860;BME280;23698;52.014;5.190;2023-02-20T09:48:07;102056.69;;;9.08;100.00
37860;BME280;23698;52.014;5.190;2023-02-20T09:51:01;102057.03;;;8.78;100.00
37860;BME280;23698;52.014;5.190;2023-02-20T09:53:54;102045.06;;;8.80;100.00
37860;BME280;23698;52.014;5.190;2023-02-20T09:56:48;102051.88;;;8.84;100.00
37860;BME280;23698;52.014;5.190;2023-02-20T09:59:38;102058.16;;;9.03;100.00
37860;BME280;23698;52.014;5.190;2023-02-20T10:02:29;102051.22;;;8.73;100.00
37860;BME280;23698;52.014;5.190;2023-02-20T10:05:21;102057.16;;;8.86;100.00
37860;BME280;23698;52.014;5.190;2023-02-20T10:08:09;102063.69;;;8.83;100.00
37860;BME280;23698;52.014;5.190;2023-02-20T10:11:02;102063.00;;;8.81;100.00
37860;BME280;23698;52.014;5.190;2023-02-20T10:13:57;102070.34;;;8.61;100.00
37860;BME280;23698;52.014;5.190;2023-02-20T10:16:50;102067.09;;;8.85;100.00
37860;BME280;23698;52.014;5.190;2023-02-20T10:19:48;102060.59;;;9.24;100.00
37860;BME280;23698;52.014;5.190;2023-02-20T10:22:41;102061.13;;;8.82;100.00
37860;BME280;23698;52.014;5.190;2023-02-20T10:25:34;102056.81;;;8.89;100.00
37860;BME280;23698;52.014;5.190;2023-02-20T10:28:25;102056.41;;;8.84;100.00
37860;BME280;23698;52.014;5.190;2023-02-20T10:31:25;102050.84;;;9.13;100.00
37860;BME280;23698;52.014;5.190;2023-02-20T10:34:18;102038.69;;;8.99;100.00
37860;BME280;23698;52.014;5.190;2023-02-20T10:37:10;102055.00;;;9.07;100.00
37860;BME280;23698;52.014;5.190;2023-02-20T10:40:01;102042.81;;;9.21;100.00
37860;BME280;23698;52.014;5.190;2023-02-20T10:42:56;102055.13;;;8.88;100.00
37860;BME280;23698;52.014;5.190;2023-02-20T10:45:52;102038.44;;;8.93;100.00
37860;BME280;23698;52.014;5.190;2023-02-20T10:48:42;102046.81;;;9.17;100.00
37860;BME280;23698;52.014;5.190;2023-02-20T10:51:33;102067.44;;;9.00;100.00
37860;BME280;23698;52.014;5.190;2023-02-20T10:54:27;102046.25;;;8.96;100.00
37860;BME280;23698;52.014;5.190;2023-02-20T10:57:21;102046.78;;;8.81;100.00
37860;BME280;23698;52.014;5.190;2023-02-20T11:00:13;102052.94;;;9.19;100.00
37860;BME280;23698;52.014;5.190;2023-02-20T11:03:07;102046.75;;;9.09;100.00
37860;BME280;23698;52.014;5.190;2023-02-20T11:05:58;102037.91;;;8.89;100.00
37860;BME280;23698;52.014;5.190;2023-02-20T11:08:47;102030.69;;;9.25;100.00
37860;BME280;23698;52.014;5.190;2023-02-20T11:11:35;102048.22;;;9.03;100.00
37860;BME280;23698;52.014;5.190;2023-02-20T11:14:31;102056.16;;;9.05;100.00
37860;BME280;23698;52.014;5.190;2023-02-20T11:17:27;102048.59;;;9.08;100.00
37860;BME280;23698;52.014;5.190;2023-02-20T11:20:42;102024.75;;;8.94;100.00
37860;BME280;23698;52.014;5.190;2023-02-20T11:23:39;102011.09;;;8.96;100.00
37860;BME280;23698;52.014;5.190;2023-02-20T11:26:31;101999.13;;;9.34;100.00
37860;BME280;23698;52.014;5.190;2023-02-20T11:29:20;102018.63;;;9.20;100.00
37860;BME280;23698;52.014;5.190;2023-02-20T11:32:22;102019.56;;;9.11;100.00
37860;BME280;23698;52.014;5.190;2023-02-20T11:35:27;101999.22;;;9.24;100.00
37860;BME280;23698;52.014;5.190;2023-02-20T11:38:34;101996.97;;;9.20;100.00
37860;BME280;23698;52.014;5.190;2023-02-20T11:41:30;101987.19;;;9.63;100.00
37860;BME280;23698;52.014;5.190;2023-02-20T11:44:23;101993.44;;;9.19;100.00
37860;BME280;23698;52.014;5.190;2023-02-20T11:47:23;101970.53;;;9.14;100.00
37860;BME280;23698;52.014;5.190;2023-02-20T11:50:16;101968.88;;;9.57;100.00
37860;BME280;23698;52.014;5.190;2023-02-20T11:53:06;101977.25;;;9.27;100.00
37860;BME280;23698;52.014;5.190;2023-02-20T11:56:10;101982.28;;;9.40;100.00
37860;BME280;23698;52.014;5.190;2023-02-20T11:59:16;101955.22;;;9.40;100.00
37860;BME280;23698;52.014;5.190;2023-02-20T12:05:13;101975.84;;;9.41;100.00
37860;BME280;23698;52.014;5.190;2023-02-20T12:08:00;101985.88;;;9.67;100.00
37860;BME280;23698;52.014;5.190;2023-02-20T12:10:49;101984.31;;;9.38;100.00
37860;BME280;23698;52.014;5.190;2023-02-20T12:13:43;101988.28;;;9.52;100.00
37860;BME280;23698;52.014;5.190;2023-02-20T12:16:39;101996.97;;;9.56;100.00
37860;BME280;23698;52.014;5.190;2023-02-20T12:19:40;101982.16;;;9.68;100.00
37860;BME280;23698;52.014;5.190;2023-02-20T12:22:33;101989.78;;;9.73;100.00
37860;BME280;23698;52.014;5.190;2023-02-20T12:25:23;101990.44;;;9.49;100.00
37860;BME280;23698;52.014;5.190;2023-02-20T12:28:17;101989.19;;;9.61;100.00
37860;BME280;23698;52.014;5.190;2023-02-20T12:31:20;101993.53;;;9.54;100.00
37860;BME280;23698;52.014;5.190;2023-02-20T12:34:29;102005.91;;;10.00;100.00
37860;BME280;23698;52.014;5.190;2023-02-20T12:37:23;101994.59;;;9.61;100.00
37860;BME280;23698;52.014;5.190;2023-02-20T12:40:36;101982.41;;;9.57;100.00
37860;BME280;23698;52.014;5.190;2023-02-20T12:43:35;101973.00;;;9.69;100.00
37860;BME280;23698;52.014;5.190;2023-02-20T12:46:30;101982.34;;;9.75;100.00
37860;BME280;23698;52.014;5.190;2023-02-20T12:49:42;101987.25;;;9.97;100.00
37860;BME280;23698;52.014;5.190;2023-02-20T12:52:44;101971.53;;;9.75;100.00
37860;BME280;23698;52.014;5.190;2023-02-20T12:55:43;101963.69;;;9.63;100.00
37860;BME280;23698;52.014;5.190;2023-02-20T12:58:41;101963.16;;;9.86;100.00
37860;BME280;23698;52.014;5.190;2023-02-20T13:01:33;101971.34;;;9.94;100.00
37860;BME280;23698;52.014;5.190;2023-02-20T13:04:29;101977.63;;;9.51;100.00
37860;BME280;23698;52.014;5.190;2023-02-20T13:07:21;101976.78;;;9.76;100.00
37860;BME280;23698;52.014;5.190;2023-02-20T13:10:14;101968.72;;;9.58;100.00
37860;BME280;23698;52.014;5.190;2023-02-20T13:13:02;101966.09;;;9.75;100.00
37860;BME280;23698;52.014;5.190;2023-02-20T13:15:55;101978.50;;;9.77;100.00
37860;BME280;23698;52.014;5.190;2023-02-20T13:18:48;101971.84;;;9.45;100.00
37860;BME280;23698;52.014;5.190;2023-02-20T13:21:36;101976.53;;;9.61;100.00
37860;BME280;23698;52.014;5.190;2023-02-20T13:24:32;101961.41;;;9.51;100.00
37860;BME280;23698;52.014;5.190;2023-02-20T13:27:29;101962.00;;;9.44;100.00
37860;BME280;23698;52.014;5.190;2023-02-20T13:30:19;101952.56;;;9.49;100.00
37860;BME280;23698;52.014;5.190;2023-02-20T13:33:11;101943.81;;;9.81;100.00
37860;BME280;23698;52.014;5.190;2023-02-20T13:36:00;101952.75;;;9.47;100.00
37860;BME280;23698;52.014;5.190;2023-02-20T13:42:32;101936.66;;;9.72;100.00
37860;BME280;23698;52.014;5.190;2023-02-20T13:45:36;101942.00;;;9.37;100.00
37860;BME280;23698;52.014;5.190;2023-02-20T13:48:41;101933.59;;;9.49;100.00
37860;BME280;23698;52.014;5.190;2023-02-20T13:51:38;101917.56;;;9.73;100.00
37860;BME280;23698;52.014;5.190;2023-02-20T13:54:26;101928.84;;;9.42;100.00
37860;BME280;23698;52.014;5.190;2023-02-20T13:57:17;101932.28;;;9.26;100.00
37860;BME280;23698;52.014;5.190;2023-02-20T14:00:19;101917.44;;;9.57;100.00
37860;BME280;23698;52.014;5.190;2023-02-20T14:03:11;101909.09;;;9.50;100.00
37860;BME280;23698;52.014;5.190;2023-02-20T14:06:04;101895.91;;;9.47;100.00
37860;BME280;23698;52.014;5.190;2023-02-20T14:09:06;101888.34;;;9.59;100.00
37860;BME280;23698;52.014;5.190;2023-02-20T14:12:02;101881.03;;;9.51;100.00
37860;BME280;23698;52.014;5.190;2023-02-20T14:14:52;101867.53;;;9.86;100.00
37860;BME280;23698;52.014;5.190;2023-02-20T14:17:41;101883.25;;;9.56;100.00
37860;BME280;23698;52.014;5.190;2023-02-20T14:20:32;101881.03;;;9.51;100.00
37860;BME280;23698;52.014;5.190;2023-02-20T14:23:25;101896.75;;;9.48;100.00
37860;BME280;23698;52.014;5.190;2023-02-20T14:26:20;101895.59;;;9.85;100.00
37860;BME280;23698;52.014;5.190;2023-02-20T14:29:19;101886.44;;;9.77;100.00
37860;BME280;23698;52.014;5.190;2023-02-20T14:32:06;101894.56;;;9.51;100.00
37860;BME280;23698;52.014;5.190;2023-02-20T14:34:58;101898.16;;;9.34;100.00
37860;BME280;23698;52.014;5.190;2023-02-20T14:37:53;101890.81;;;9.26;100.00
37860;BME280;23698;52.014;5.190;2023-02-20T14:40:43;101895.00;;;9.38;100.00
37860;BME280;23698;52.014;5.190;2023-02-20T14:43:32;101900.13;;;9.50;100.00
37860;BME280;23698;52.014;5.190;2023-02-20T14:46:21;101899.13;;;9.51;100.00
37860;BME280;23698;52.014;5.190;2023-02-20T14:49:11;101884.78;;;9.58;100.00
37860;BME280;23698;52.014;5.190;2023-02-20T14:52:17;101895.59;;;9.32;100.00
37860;BME280;23698;52.014;5.190;2023-02-20T14:55:05;101880.47;;;9.74;100.00
37860;BME280;23698;52.014;5.190;2023-02-20T14:57:51;101873.75;;;9.52;100.00
37860;BME280;23698;52.014;5.190;2023-02-20T15:00:41;101869.72;;;9.56;100.00
37860;BME280;23698;52.014;5.190;2023-02-20T15:03:29;101873.03;;;9.76;100.00
37860;BME280;23698;52.014;5.190;2023-02-20T15:06:17;101866.97;;;9.48;100.00